sensor_id;sensor_type;location;lat;lon;timestamp;pressure;altitude;pressure_sealevel;temperature;humidity
81835;BME280;71272;52.166;4.498;2024-03-02T00:02:12;99771.66;;;8.15;100.00
81835;BME280;71272;52.166;4.498;2024-03-02T00:04:37;99779.22;;;8.18;100.00
81835;BME280;71272;52.166;4.498;2024-03-02T00:07:03;99784.81;;;8.18;100.00
81835;BME280;71272;52.166;4.498;2024-03-02T00:09:29;99777.28;;;8.11;100.00
81835;BME280;71272;52.166;4.498;2024-03-02T00:11:54;99791.69;;;8.06;100.00
81835;BME280;71272;52.166;4.498;2024-03-02T00:14:19;99787.72;;;8.04;100.00
81835;BME280;71272;52.166;4.498;2024-03-02T00:16:45;99783.34;;;7.99;100.00
81835;BME280;71272;52.166;4.498;2024-03-02T00:19:11;99776.16;;;8.01;100.00
81835;BME280;71272;52.166;4.498;2024-03-02T00:21:36;99800.09;;;8.03;100.00
81835;BME280;71272;52.166;4.498;2024-03-02T00:24:08;99808.88;;;8.01;100.00
81835;BME280;71272;52.166;4.498;2024-03-02T00:26:44;99808.13;;;7.97;100.00
81835;BME280;71272;52.166;4.498;2024-03-02T00:29:09;99819.25;;;8.00;100.00
81835;BME280;71272;52.166;4.498;2024-03-02T00:31:39;99821.69;;;7.95;100.00
81835;BME280;71272;52.166;4.498;2024-03-02T00:34:05;99812.19;;;7.89;100.00
81835;BME280;71272;52.166;4.498;2024-03-02T00:36:31;99805.34;;;7.93;100.00
81835;BME280;71272;52.166;4.498;2024-03-02T00:38:56;99811.75;;;7.90;100.00
81835;BME280;71272;52.166;4.498;2024-03-02T00:41:27;99815.75;;;7.89;100.00
81835;BME280;71272;52.166;4.498;2024-03-02T00:43:59;99816.56;;;7.86;100.00
81835;BME280;71272;52.166;4.498;2024-03-02T00:46:27;99812.22;;;7.82;100.00
81835;BME280;71272;52.166;4.498;2024-03-02T00:48:55;99811.81;;;7.79;100.00
81835;BME280;71272;52.166;4.498;2024-03-02T00:51:22;99812.25;;;7.74;100.00
81835;BME280;71272;52.166;4.498;2024-03-02T00:53:47;99819.44;;;7.75;100.00
81835;BME280;71272;52.166;4.498;2024-03-02T00:56:13;99808.25;;;7.79;100.00
81835;BME280;71272;52.166;4.498;2024-03-02T00:58:39;99803.50;;;7.72;100.00
81835;BME280;71272;52.166;4.498;2024-03-02T01:01:05;99812.28;;;7.71;100.00
81835;BME280;71272;52.166;4.498;2024-03-02T01:03:31;99805.50;;;7.68;100.00
81835;BME280;71272;52.166;4.498;2024-03-02T01:05:56;99807.13;;;7.66;100.00
81835;BME280;71272;52.166;4.498;2024-03-02T01:08:22;99805.19;;;7.59;100.00
81835;BME280;71272;52.166;4.498;2024-03-02T01:10:47;99793.22;;;7.59;100.00
81835;BME280;71272;52.166;4.498;2024-03-02T01:13:12;99792.44;;;7.54;100.00
81835;BME280;71272;52.166;4.498;2024-03-02T01:15:38;99805.59;;;7.54;100.00
81835;BME280;71272;52.166;4.498;2024-03-02T01:18:03;99800.06;;;7.50;100.00
81835;BME280;71272;52.166;4.498;2024-03-02T01:20:29;99803.25;;;7.49;100.00
81835;BME280;71272;52.166;4.498;2024-03-02T01:22:54;99791.69;;;7.50;100.00
81835;BME280;71272;52.166;4.498;2024-03-02T01:25:20;99798.88;;;7.48;100.00
81835;BME280;71272;52.166;4.498;2024-03-02T01:27:45;99805.25;;;7.48;100.00
81835;BME280;71272;52.166;4.498;2024-03-02T01:30:11;99820.78;;;7.49;100.00
81835;BME280;71272;52.166;4.498;2024-03-02T01:32:38;99827.13;;;7.50;100.00
81835;BME280;71272;52.166;4.498;2024-03-02T01:35:04;99797.25;;;7.47;100.00
81835;BME280;71272;52.166;4.498;2024-03-02T01:37:29;99814.81;;;7.44;100.00
81835;BME280;71272;52.166;4.498;2024-03-02T01:39:54;99840.72;;;7.44;100.00
81835;BME280;71272;52.166;4.498;2024-03-02T01:42:20;99854.69;;;7.44;100.00
81835;BME280;71272;52.166;4.498;2024-03-02T01:44:45;99836.78;;;7.38;100.00
81835;BME280;71272;52.166;4.498;2024-03-02T01:47:10;99834.75;;;7.46;100.00
81835;BME280;71272;52.166;4.498;2024-03-02T01:49:36;99831.56;;;7.44;100.00
81835;BME280;71272;52.166;4.498;2024-03-02T01:52:02;99823.19;;;7.44;100.00
81835;BME280;71272;52.166;4.498;2024-03-02T01:54:27;99837.53;;;7.46;100.00
81835;BME280;71272;52.166;4.498;2024-03-02T01:56:53;99839.13;;;7.47;100.00
81835;BME280;71272;52.166;4.498;2024-03-02T01:59:18;99826.78;;;7.44;100.00
81835;BME280;71272;52.166;4.498;2024-03-02T02:01:43;99841.50;;;7.48;100.00
81835;BME280;71272;52.166;4.498;2024-03-02T02:04:09;99839.91;;;7.47;100.00
81835;BME280;71272;52.166;4.498;2024-03-02T02:06:34;99849.09;;;7.48;100.00
81835;BME280;71272;52.166;4.498;2024-03-02T02:09:00;99846.69;;;7.46;100.00
81835;BME280;71272;52.166;4.498;2024-03-02T02:11:25;99855.06;;;7.46;100.00
81835;BME280;71272;52.166;4.498;2024-03-02T02:13:50;99849.88;;;7.48;100.00
81835;BME280;71272;52.166;4.498;2024-03-02T02:16:16;99841.53;;;7.45;100.00
81835;BME280;71272;52.166;4.498;2024-03-02T02:18:41;99839.53;;;7.45;100.00
81835;BME280;71272;52.166;4.498;2024-03-02T02:21:07;99844.69;;;7.47;100.00
81835;BME280;71272;52.166;4.498;2024-03-02T02:23:32;99843.91;;;7.46;100.00
81835;BME280;71272;52.166;4.498;2024-03-02T02:25:58;99843.50;;;7.44;100.00
81835;BME280;71272;52.166;4.498;2024-03-02T02:28:23;99854.28;;;7.46;100.00
81835;BME280;71272;52.166;4.498;2024-03-02T02:30:49;99857.06;;;7.46;100.00
81835;BME280;71272;52.166;4.498;2024-03-02T02:33:14;99852.25;;;7.50;100.00
81835;BME280;71272;52.166;4.498;2024-03-02T02:35:39;99858.22;;;7.52;100.00
81835;BME280;71272;52.166;4.498;2024-03-02T02:38:05;99852.25;;;7.50;100.00
81835;BME280;71272;52.166;4.498;2024-03-02T02:40:30;99857.84;;;7.53;100.00
81835;BME280;71272;52.166;4.498;2024-03-02T02:42:56;99853.84;;;7.54;100.00
81835;BME280;71272;52.166;4.498;2024-03-02T02:45:22;99847.06;;;7.52;100.00
81835;BME280;71272;52.166;4.498;2024-03-02T02:47:48;99842.28;;;7.52;100.00
81835;BME280;71272;52.166;4.498;2024-03-02T02:50:13;99843.06;;;7.56;100.00
81835;BME280;71272;52.166;4.498;2024-03-02T02:52:40;99837.09;;;7.54;100.00
81835;BME280;71272;52.166;4.498;2024-03-02T02:55:07;99844.25;;;7.55;100.00
81835;BME280;71272;52.166;4.498;2024-03-02T02:57:33;99843.88;;;7.53;100.00
81835;BME280;71272;52.166;4.498;2024-03-02T03:00:14;99846.66;;;7.57;100.00
81835;BME280;71272;52.166;4.498;2024-03-02T03:02:45;99845.06;;;7.56;100.00
81835;BME280;71272;52.166;4.498;2024-03-02T03:05:12;99839.50;;;7.56;100.00
81835;BME280;71272;52.166;4.498;2024-03-02T03:07:39;99849.47;;;7.53;100.00
81835;BME280;71272;52.166;4.498;2024-03-02T03:10:05;99844.31;;;7.48;100.00
81835;BME280;71272;52.166;4.498;2024-03-02T03:12:32;99843.53;;;7.48;100.00
81835;BME280;71272;52.166;4.498;2024-03-02T03:14:57;99854.28;;;7.46;100.00
81835;BME280;71272;52.166;4.498;2024-03-02T03:17:23;99847.50;;;7.43;100.00
81835;BME280;71272;52.166;4.498;2024-03-02T03:19:49;99850.69;;;7.45;100.00
81835;BME280;71272;52.166;4.498;2024-03-02T03:22:14;99858.66;;;7.47;100.00
81835;BME280;71272;52.166;4.498;2024-03-02T03:24:39;99850.69;;;7.49;100.00
81835;BME280;71272;52.166;4.498;2024-03-02T03:27:05;99862.63;;;7.49;100.00
81835;BME280;71272;52.166;4.498;2024-03-02T03:29:30;99867.41;;;7.52;100.00
81835;BME280;71272;52.166;4.498;2024-03-02T03:31:55;99857.06;;;7.53;100.00
81835;BME280;71272;52.166;4.498;2024-03-02T03:34:20;99862.22;;;7.54;100.00
81835;BME280;71272;52.166;4.498;2024-03-02T03:36:46;99864.59;;;7.52;100.00
81835;BME280;71272;52.166;4.498;2024-03-02T03:39:11;99867.81;;;7.51;100.00
81835;BME280;71272;52.166;4.498;2024-03-02T03:41:36;99871.41;;;7.51;100.00
81835;BME280;71272;52.166;4.498;2024-03-02T03:44:02;99861.84;;;7.49;100.00
81835;BME280;71272;52.166;4.498;2024-03-02T03:46:29;99865.03;;;7.47;100.00
81835;BME280;71272;52.166;4.498;2024-03-02T03:48:54;99871.41;;;7.51;100.00
81835;BME280;71272;52.166;4.498;2024-03-02T03:51:21;99869.00;;;7.53;100.00
81835;BME280;71272;52.166;4.498;2024-03-02T03:53:47;99861.00;;;7.55;100.00
81835;BME280;71272;52.166;4.498;2024-03-02T03:56:12;99865.41;;;7.56;100.00
81835;BME280;71272;52.166;4.498;2024-03-02T03:58:38;99876.94;;;7.55;100.00
81835;BME280;71272;52.166;4.498;2024-03-02T04:01:03;99873.75;;;7.60;100.00
81835;BME280;71272;52.166;4.498;2024-03-02T04:03:29;99878.13;;;7.61;100.00
81835;BME280;71272;52.166;4.498;2024-03-02T04:05:55;99879.31;;;7.60;100.00
81835;BME280;71272;52.166;4.498;2024-03-02T04:08:20;99884.50;;;7.62;100.00
81835;BME280;71272;52.166;4.498;2024-03-02T04:10:46;99881.72;;;7.62;100.00
81835;BME280;71272;52.166;4.498;2024-03-02T04:13:11;99883.31;;;7.63;100.00
81835;BME280;71272;52.166;4.498;2024-03-02T04:15:37;99885.28;;;7.66;100.00
81835;BME280;71272;52.166;4.498;2024-03-02T04:18:02;99884.88;;;7.67;100.00
81835;BME280;71272;52.166;4.498;2024-03-02T04:20:28;99884.88;;;7.64;100.00
81835;BME280;71272;52.166;4.498;2024-03-02T04:22:53;99885.69;;;7.64;100.00
81835;BME280;71272;52.166;4.498;2024-03-02T04:25:18;99898.44;;;7.65;100.00
81835;BME280;71272;52.166;4.498;2024-03-02T04:27:45;99898.06;;;7.67;100.00
81835;BME280;71272;52.166;4.498;2024-03-02T04:30:10;99895.25;;;7.63;100.00
81835;BME280;71272;52.166;4.498;2024-03-02T04:32:36;99886.50;;;7.65;100.00
81835;BME280;71272;52.166;4.498;2024-03-02T04:35:02;99891.28;;;7.61;100.00
81835;BME280;71272;52.166;4.498;2024-03-02T04:37:27;99891.31;;;7.57;100.00
81835;BME280;71272;52.166;4.498;2024-03-02T04:39:52;99894.13;;;7.53;100.00
81835;BME280;71272;52.166;4.498;2024-03-02T04:42:17;99898.50;;;7.54;100.00
81835;BME280;71272;52.166;4.498;2024-03-02T04:44:43;99894.91;;;7.54;100.00
81835;BME280;71272;52.166;4.498;2024-03-02T04:47:08;99901.72;;;7.46;100.00
81835;BME280;71272;52.166;4.498;2024-03-02T04:49:33;99902.50;;;7.46;100.00
81835;BME280;71272;52.166;4.498;2024-03-02T04:51:59;99900.16;;;7.38;100.00
81835;BME280;71272;52.166;4.498;2024-03-02T04:54:24;99903.75;;;7.34;100.00
81835;BME280;71272;52.166;4.498;2024-03-02T04:56:50;99908.16;;;7.28;100.00
81835;BME280;71272;52.166;4.498;2024-03-02T04:59:16;99922.88;;;7.25;100.00
81835;BME280;71272;52.166;4.498;2024-03-02T05:01:42;99921.31;;;7.21;100.00
81835;BME280;71272;52.166;4.498;2024-03-02T05:04:08;99927.28;;;7.23;100.00
81835;BME280;71272;52.166;4.498;2024-03-02T05:06:33;99927.28;;;7.26;100.00
81835;BME280;71272;52.166;4.498;2024-03-02T05:08:58;99918.50;;;7.28;100.00
81835;BME280;71272;52.166;4.498;2024-03-02T05:11:24;99922.88;;;7.32;100.00
81835;BME280;71272;52.166;4.498;2024-03-02T05:14:05;99924.06;;;7.35;100.00
81835;BME280;71272;52.166;4.498;2024-03-02T05:16:35;99920.47;;;7.31;100.00
81835;BME280;71272;52.166;4.498;2024-03-02T05:19:00;99927.28;;;7.30;100.00
81835;BME280;71272;52.166;4.498;2024-03-02T05:21:26;99930.84;;;7.34;100.00
81835;BME280;71272;52.166;4.498;2024-03-02T05:23:51;99932.03;;;7.33;100.00
81835;BME280;71272;52.166;4.498;2024-03-02T05:26:16;99938.03;;;7.35;100.00
81835;BME280;71272;52.166;4.498;2024-03-02T05:28:42;99933.66;;;7.34;100.00
81835;BME280;71272;52.166;4.498;2024-03-02T05:31:10;99940.00;;;7.38;100.00
81835;BME280;71272;52.166;4.498;2024-03-02T05:33:38;99941.97;;;7.41;100.00
81835;BME280;71272;52.166;4.498;2024-03-02T05:36:03;99949.56;;;7.41;100.00
81835;BME280;71272;52.166;4.498;2024-03-02T05:38:29;99947.56;;;7.41;100.00
81835;BME280;71272;52.166;4.498;2024-03-02T05:40:54;99949.53;;;7.44;100.00
81835;BME280;71272;52.166;4.498;2024-03-02T05:43:20;99939.19;;;7.41;100.00
81835;BME280;71272;52.166;4.498;2024-03-02T05:45:45;99943.16;;;7.44;100.00
81835;BME280;71272;52.166;4.498;2024-03-02T05:48:10;99943.97;;;7.44;100.00
81835;BME280;71272;52.166;4.498;2024-03-02T05:50:36;99941.63;;;7.32;100.00
81835;BME280;71272;52.166;4.498;2024-03-02T05:53:01;99941.59;;;7.39;100.00
81835;BME280;71272;52.166;4.498;2024-03-02T05:55:26;99943.59;;;7.39;100.00
81835;BME280;71272;52.166;4.498;2024-03-02T05:57:52;99946.00;;;7.37;100.00
81835;BME280;71272;52.166;4.498;2024-03-02T06:00:23;99939.63;;;7.32;100.00
81835;BME280;71272;52.166;4.498;2024-03-02T06:02:48;99936.44;;;7.27;100.00
81835;BME280;71272;52.166;4.498;2024-03-02T06:05:14;99939.66;;;7.22;100.00
81835;BME280;71272;52.166;4.498;2024-03-02T06:07:40;99946.44;;;7.14;100.00
81835;BME280;71272;52.166;4.498;2024-03-02T06:10:06;99946.44;;;7.14;100.00
81835;BME280;71272;52.166;4.498;2024-03-02T06:12:32;99946.84;;;7.12;100.00
81835;BME280;71272;52.166;4.498;2024-03-02T06:14:58;99953.63;;;7.07;100.00
81835;BME280;71272;52.166;4.498;2024-03-02T06:17:23;99955.59;;;7.10;100.00
81835;BME280;71272;52.166;4.498;2024-03-02T06:19:48;99951.59;;;7.11;100.00
81835;BME280;71272;52.166;4.498;2024-03-02T06:22:14;99955.22;;;7.12;100.00
81835;BME280;71272;52.166;4.498;2024-03-02T06:24:39;99958.41;;;7.10;100.00
81835;BME280;71272;52.166;4.498;2024-03-02T06:27:05;99956.81;;;7.09;100.00
81835;BME280;71272;52.166;4.498;2024-03-02T06:29:33;99963.19;;;7.10;100.00
81835;BME280;71272;52.166;4.498;2024-03-02T06:31:59;99966.34;;;7.08;100.00
81835;BME280;71272;52.166;4.498;2024-03-02T06:34:24;99965.56;;;7.08;100.00
81835;BME280;71272;52.166;4.498;2024-03-02T06:36:49;99964.38;;;7.13;100.00
81835;BME280;71272;52.166;4.498;2024-03-02T06:39:15;99959.59;;;7.13;100.00
81835;BME280;71272;52.166;4.498;2024-03-02T06:41:41;99967.94;;;7.17;100.00
81835;BME280;71272;52.166;4.498;2024-03-02T06:44:07;99967.56;;;7.18;100.00
81835;BME280;71272;52.166;4.498;2024-03-02T06:46:33;99962.75;;;7.19;100.00
81835;BME280;71272;52.166;4.498;2024-03-02T06:48:58;99964.75;;;7.22;100.00
81835;BME280;71272;52.166;4.498;2024-03-02T06:51:23;99962.38;;;7.20;100.00
81835;BME280;71272;52.166;4.498;2024-03-02T06:53:48;99959.16;;;7.22;100.00
81835;BME280;71272;52.166;4.498;2024-03-02T06:56:14;99971.50;;;7.24;100.00
81835;BME280;71272;52.166;4.498;2024-03-02T06:58:39;99969.53;;;7.25;100.00
81835;BME280;71272;52.166;4.498;2024-03-02T07:01:04;99980.28;;;7.26;100.00
81835;BME280;71272;52.166;4.498;2024-03-02T07:03:30;99984.28;;;7.22;100.00
81835;BME280;71272;52.166;4.498;2024-03-02T07:05:55;99981.47;;;7.22;100.00
81835;BME280;71272;52.166;4.498;2024-03-02T07:08:20;99990.25;;;7.24;100.00
81835;BME280;71272;52.166;4.498;2024-03-02T07:10:46;99996.22;;;7.26;100.00
81835;BME280;71272;52.166;4.498;2024-03-02T07:13:12;99995.03;;;7.27;100.00
81835;BME280;71272;52.166;4.498;2024-03-02T07:15:38;99998.22;;;7.29;100.00
81835;BME280;71272;52.166;4.498;2024-03-02T07:18:26;100004.97;;;7.28;100.00
81835;BME280;71272;52.166;4.498;2024-03-02T07:20:52;100004.97;;;7.35;100.00
81835;BME280;71272;52.166;4.498;2024-03-02T07:23:17;100006.19;;;7.34;100.00
81835;BME280;71272;52.166;4.498;2024-03-02T07:25:42;100001.78;;;7.33;100.00
81835;BME280;71272;52.166;4.498;2024-03-02T07:28:07;100007.75;;;7.35;100.00
81835;BME280;71272;52.166;4.498;2024-03-02T07:30:33;100003.78;;;7.36;100.00
81835;BME280;71272;52.166;4.498;2024-03-02T07:32:59;100006.97;;;7.38;100.00
81835;BME280;71272;52.166;4.498;2024-03-02T07:35:24;100011.75;;;7.38;100.00
81835;BME280;71272;52.166;4.498;2024-03-02T07:37:53;100008.94;;;7.41;100.00
81835;BME280;71272;52.166;4.498;2024-03-02T07:40:18;100011.34;;;7.43;100.00
81835;BME280;71272;52.166;4.498;2024-03-02T07:42:45;100023.28;;;7.47;100.00
81835;BME280;71272;52.166;4.498;2024-03-02T07:45:10;100014.94;;;7.50;100.00
81835;BME280;71272;52.166;4.498;2024-03-02T07:47:36;100019.69;;;7.53;100.00
81835;BME280;71272;52.166;4.498;2024-03-02T07:50:02;100015.69;;;7.58;100.00
81835;BME280;71272;52.166;4.498;2024-03-02T07:52:27;100021.69;;;7.56;100.00
81835;BME280;71272;52.166;4.498;2024-03-02T07:54:53;100022.06;;;7.62;100.00
81835;BME280;71272;52.166;4.498;2024-03-02T07:57:19;100023.66;;;7.67;100.00
81835;BME280;71272;52.166;4.498;2024-03-02T07:59:44;100022.06;;;7.69;100.00
81835;BME280;71272;52.166;4.498;2024-03-02T08:02:12;100025.59;;;7.77;100.00
81835;BME280;71272;52.166;4.498;2024-03-02T08:04:37;100034.78;;;7.77;100.00
81835;BME280;71272;52.166;4.498;2024-03-02T08:07:03;100022.78;;;7.84;100.00
81835;BME280;71272;52.166;4.498;2024-03-02T08:09:29;100019.63;;;7.86;100.00
81835;BME280;71272;52.166;4.498;2024-03-02T08:11:54;100033.16;;;7.84;100.00
81835;BME280;71272;52.166;4.498;2024-03-02T08:14:21;100017.22;;;7.77;100.00
81835;BME280;71272;52.166;4.498;2024-03-02T08:16:46;100006.88;;;7.77;100.00
81835;BME280;71272;52.166;4.498;2024-03-02T08:19:12;100019.63;;;7.71;100.00
81835;BME280;71272;52.166;4.498;2024-03-02T08:21:37;100022.00;;;7.76;100.00
81835;BME280;71272;52.166;4.498;2024-03-02T08:24:03;100020.41;;;7.79;100.00
81835;BME280;71272;52.166;4.498;2024-03-02T08:26:28;100027.59;;;7.84;100.00
81835;BME280;71272;52.166;4.498;2024-03-02T08:28:55;100030.34;;;7.87;100.00
81835;BME280;71272;52.166;4.498;2024-03-02T08:31:20;100038.72;;;7.87;100.00
81835;BME280;71272;52.166;4.498;2024-03-02T08:33:45;100031.53;;;7.93;100.00
81835;BME280;71272;52.166;4.498;2024-03-02T08:36:11;100027.91;;;7.96;100.00
81835;BME280;71272;52.166;4.498;2024-03-02T08:38:37;100022.72;;;7.98;100.00
81835;BME280;71272;52.166;4.498;2024-03-02T08:41:02;100017.94;;;8.03;100.00
81835;BME280;71272;52.166;4.498;2024-03-02T08:43:28;100019.13;;;8.05;100.00
81835;BME280;71272;52.166;4.498;2024-03-02T08:45:54;100023.53;;;8.03;100.00
81835;BME280;71272;52.166;4.498;2024-03-02T08:48:19;100028.69;;;8.08;100.00
81835;BME280;71272;52.166;4.498;2024-03-02T08:50:46;100027.50;;;8.05;100.00
81835;BME280;71272;52.166;4.498;2024-03-02T08:53:11;100029.88;;;8.10;100.00
81835;BME280;71272;52.166;4.498;2024-03-02T08:55:37;100040.22;;;8.17;100.00
81835;BME280;71272;52.166;4.498;2024-03-02T08:58:02;100026.28;;;8.13;100.00
81835;BME280;71272;52.166;4.498;2024-03-02T09:00:28;100035.41;;;8.21;100.00
81835;BME280;71272;52.166;4.498;2024-03-02T09:02:54;100031.41;;;8.22;100.00
81835;BME280;71272;52.166;4.498;2024-03-02T09:05:19;100038.63;;;8.19;100.00
81835;BME280;71272;52.166;4.498;2024-03-02T09:07:44;100037.41;;;8.24;100.00
81835;BME280;71272;52.166;4.498;2024-03-02T09:10:10;100027.78;;;8.29;100.00
81835;BME280;71272;52.166;4.498;2024-03-02T09:12:35;100042.16;;;8.31;100.00
81835;BME280;71272;52.166;4.498;2024-03-02T09:15:01;100035.34;;;8.35;100.00
81835;BME280;71272;52.166;4.498;2024-03-02T09:17:27;100032.56;;;8.39;100.00
81835;BME280;71272;52.166;4.498;2024-03-02T09:19:52;100041.31;;;8.44;100.00
81835;BME280;71272;52.166;4.498;2024-03-02T09:22:18;100038.50;;;8.44;100.00
81835;BME280;71272;52.166;4.498;2024-03-02T09:24:44;100031.69;;;8.53;100.00
81835;BME280;71272;52.166;4.498;2024-03-02T09:27:09;100040.47;;;8.55;100.00
81835;BME280;71272;52.166;4.498;2024-03-02T09:29:34;100047.63;;;8.56;100.00
81835;BME280;71272;52.166;4.498;2024-03-02T09:31:59;100056.81;;;8.56;100.00
81835;BME280;71272;52.166;4.498;2024-03-02T09:34:25;100052.78;;;8.61;100.00
81835;BME280;71272;52.166;4.498;2024-03-02T09:36:51;100057.56;;;8.64;100.00
81835;BME280;71272;52.166;4.498;2024-03-02T09:39:17;100061.50;;;8.70;100.00
81835;BME280;71272;52.166;4.498;2024-03-02T09:41:43;100054.66;;;8.78;100.00
81835;BME280;71272;52.166;4.498;2024-03-02T09:44:09;100058.25;;;8.82;100.00
81835;BME280;71272;52.166;4.498;2024-03-02T09:46:34;100059.84;;;8.83;100.00
81835;BME280;71272;52.166;4.498;2024-03-02T09:49:02;100056.56;;;8.96;100.00
81835;BME280;71272;52.166;4.498;2024-03-02T09:51:27;100050.09;;;9.02;100.00
81835;BME280;71272;52.166;4.498;2024-03-02T09:53:54;100054.91;;;9.02;100.00
81835;BME280;71272;52.166;4.498;2024-03-02T09:56:21;100065.66;;;9.07;100.00
81835;BME280;71272;52.166;4.498;2024-03-02T09:58:47;100055.63;;;9.13;100.00
81835;BME280;71272;52.166;4.498;2024-03-02T10:01:12;100056.75;;;9.19;100.00
81835;BME280;71272;52.166;4.498;2024-03-02T10:03:38;100053.91;;;9.26;100.00
81835;BME280;71272;52.166;4.498;2024-03-02T10:06:26;100069.00;;;9.40;100.00
81835;BME280;71272;52.166;4.498;2024-03-02T10:08:52;100057.75;;;9.47;100.00
81835;BME280;71272;52.166;4.498;2024-03-02T10:11:31;100073.72;;;9.50;100.00
81835;BME280;71272;52.166;4.498;2024-03-02T10:14:11;100069.69;;;9.51;100.00
81835;BME280;71272;52.166;4.498;2024-03-02T10:16:37;100060.84;;;9.56;100.00
81835;BME280;71272;52.166;4.498;2024-03-02T10:19:23;100063.19;;;9.61;100.00
81835;BME280;71272;52.166;4.498;2024-03-02T10:21:54;100066.72;;;9.69;100.00
81835;BME280;71272;52.166;4.498;2024-03-02T10:24:21;100059.13;;;9.69;100.00
81835;BME280;71272;52.166;4.498;2024-03-02T10:26:47;100056.59;;;9.78;100.00
81835;BME280;71272;52.166;4.498;2024-03-02T10:29:13;100056.81;;;9.95;100.00
81835;BME280;71272;52.166;4.498;2024-03-02T10:31:40;100043.94;;;10.01;100.00
81835;BME280;71272;52.166;4.498;2024-03-02T10:34:06;100046.94;;;10.17;100.00
81835;BME280;71272;52.166;4.498;2024-03-02T10:36:33;100042.06;;;10.25;100.00
81835;BME280;71272;52.166;4.498;2024-03-02T10:39:02;100032.84;;;10.25;100.00
81835;BME280;71272;52.166;4.498;2024-03-02T10:41:28;100037.72;;;10.20;100.00
81835;BME280;71272;52.166;4.498;2024-03-02T10:43:54;100040.44;;;10.28;100.00
81835;BME280;71272;52.166;4.498;2024-03-02T10:46:27;100043.25;;;10.28;100.00
81835;BME280;71272;52.166;4.498;2024-03-02T10:48:57;100036.78;;;10.34;100.00
81835;BME280;71272;52.166;4.498;2024-03-02T10:51:29;100037.56;;;10.35;100.00
81835;BME280;71272;52.166;4.498;2024-03-02T10:53:57;100022.22;;;10.43;100.00
81835;BME280;71272;52.166;4.498;2024-03-02T10:56:42;100023.78;;;10.48;100.00
81835;BME280;71272;52.166;4.498;2024-03-02T11:01:39;100024.03;;;10.57;100.00
81835;BME280;71272;52.166;4.498;2024-03-02T11:04:08;100029.06;;;10.69;100.00
81835;BME280;71272;52.166;4.498;2024-03-02T11:06:34;100029.03;;;10.73;100.00
81835;BME280;71272;52.166;4.498;2024-03-02T11:09:06;100028.88;;;10.83;100.00
81835;BME280;71272;52.166;4.498;2024-03-02T11:11:36;100034.66;;;10.96;100.00
81835;BME280;71272;52.166;4.498;2024-03-02T11:14:04;100029.84;;;10.97;100.00
81835;BME280;71272;52.166;4.498;2024-03-02T11:19:04;100018.78;;;11.13;100.00
81835;BME280;71272;52.166;4.498;2024-03-02T11:21:30;100018.53;;;11.27;100.00
81835;BME280;71272;52.166;4.498;2024-03-02T11:23:58;100025.63;;;11.32;100.00
81835;BME280;71272;52.166;4.498;2024-03-02T11:26:23;100034.31;;;11.41;100.00
81835;BME280;71272;52.166;4.498;2024-03-02T11:28:52;100029.47;;;11.65;100.00
81835;BME280;71272;52.166;4.498;2024-03-02T11:31:17;100032.91;;;11.73;100.00
81835;BME280;71272;52.166;4.498;2024-03-02T11:33:42;100018.72;;;12.04;100.00
81835;BME280;71272;52.166;4.498;2024-03-02T11:36:08;100016.91;;;12.13;100.00
81835;BME280;71272;52.166;4.498;2024-03-02T11:38:35;100016.25;;;12.26;100.00
81835;BME280;71272;52.166;4.498;2024-03-02T11:41:06;100011.47;;;12.42;100.00
81835;BME280;71272;52.166;4.498;2024-03-02T11:43:39;100009.38;;;12.63;100.00
81835;BME280;71272;52.166;4.498;2024-03-02T11:46:05;100017.00;;;12.82;100.00
81835;BME280;71272;52.166;4.498;2024-03-02T11:48:39;100005.47;;;12.93;100.00
81835;BME280;71272;52.166;4.498;2024-03-02T11:51:04;100007.94;;;13.07;100.00
81835;BME280;71272;52.166;4.498;2024-03-02T11:53:30;100006.28;;;13.26;100.00
81835;BME280;71272;52.166;4.498;2024-03-02T11:55:58;100005.75;;;13.31;100.00
81835;BME280;71272;52.166;4.498;2024-03-02T11:58:23;99998.69;;;13.40;100.00
81835;BME280;71272;52.166;4.498;2024-03-02T12:00:53;99994.25;;;13.55;100.00
81835;BME280;71272;52.166;4.498;2024-03-02T12:03:21;100000.06;;;13.64;100.00
81835;BME280;71272;52.166;4.498;2024-03-02T12:05:53;99994.00;;;13.79;100.00
81835;BME280;71272;52.166;4.498;2024-03-02T12:08:18;99994.59;;;13.86;100.00
81835;BME280;71272;52.166;4.498;2024-03-02T12:10:55;99982.69;;;13.95;100.00
81835;BME280;71272;52.166;4.498;2024-03-02T12:13:21;99986.31;;;14.08;100.00
81835;BME280;71272;52.166;4.498;2024-03-02T12:15:46;99992.44;;;14.19;100.00
81835;BME280;71272;52.166;4.498;2024-03-02T12:18:11;99976.88;;;14.28;100.00
81835;BME280;71272;52.166;4.498;2024-03-02T12:20:37;99967.28;;;14.25;100.00
81835;BME280;71272;52.166;4.498;2024-03-02T12:23:04;99981.63;;;14.43;100.00
81835;BME280;71272;52.166;4.498;2024-03-02T12:25:30;99971.81;;;14.48;100.00
81835;BME280;71272;52.166;4.498;2024-03-02T12:27:56;99966.41;;;14.41;100.00
81835;BME280;71272;52.166;4.498;2024-03-02T12:30:23;99955.44;;;14.43;100.00
81835;BME280;71272;52.166;4.498;2024-03-02T12:32:50;99948.78;;;14.50;100.00
81835;BME280;71272;52.166;4.498;2024-03-02T12:35:17;99956.47;;;14.75;100.00
81835;BME280;71272;52.166;4.498;2024-03-02T12:37:51;99958.03;;;14.88;100.00
81835;BME280;71272;52.166;4.498;2024-03-02T12:40:17;99955.19;;;15.14;100.00
81835;BME280;71272;52.166;4.498;2024-03-02T12:42:44;99947.59;;;15.11;100.00
81835;BME280;71272;52.166;4.498;2024-03-02T12:45:10;99961.06;;;15.07;100.00
81835;BME280;71272;52.166;4.498;2024-03-02T12:47:36;99964.69;;;15.07;100.00
81835;BME280;71272;52.166;4.498;2024-03-02T12:50:03;99959.44;;;15.19;100.00
81835;BME280;71272;52.166;4.498;2024-03-02T12:52:30;99957.25;;;15.36;100.00
81835;BME280;71272;52.166;4.498;2024-03-02T12:54:56;99955.28;;;15.45;100.00
81835;BME280;71272;52.166;4.498;2024-03-02T12:57:31;99951.03;;;15.63;100.00